Time;durP1;ratioP1;P1;durP2;ratioP2;P2;SDS_P1;SDS_P2;PMS_P1;PMS_P2;Temp;Humidity;BMP_temperature;BMP_pressure;BME280_temperature;BME280_humidity;BME280_pressure;Samples;Min_cycle;Max_cycle;Signal;HPM_P1;HPM_P2
2024/02/08 00:02:04;;;;;;;22.57;13.20;;;14.70;50.10;;;;;;5016454;28;20973;-74
2024/02/08 00:04:34;;;;;;;24.97;13.43;;;14.70;50.10;;;;;;5027409;28;20509;-75
2024/02/08 00:07:03;;;;;;;22.43;12.63;;;14.70;50.10;;;;;;5023736;28;20464;-75
2024/02/08 00:09:31;;;;;;;27.17;12.23;;;14.60;50.00;;;;;;5004275;28;20463;-74
2024/02/08 00:11:59;;;;;;;22.50;13.40;;;14.70;50.20;;;;;;5010684;28;20530;-74
2024/02/08 00:14:28;;;;;;;23.07;13.90;;;14.60;50.00;;;;;;5005115;28;20459;-74
2024/02/08 00:16:59;;;;;;;22.03;13.30;;;14.60;49.80;;;;;;5008768;28;20522;-74
2024/02/08 00:19:28;;;;;;;26.30;13.33;;;14.60;50.00;;;;;;5013321;28;20494;-74
2024/02/08 00:21:58;;;;;;;22.70;13.50;;;14.60;50.10;;;;;;5011701;28;20475;-74
2024/02/08 00:24:30;;;;;;;22.23;12.57;;;14.60;50.20;;;;;;5014857;28;20516;-74
2024/02/08 00:26:59;;;;;;;25.97;13.60;;;14.50;49.80;;;;;;5017405;28;20476;-74
2024/02/08 00:29:28;;;;;;;24.10;13.63;;;14.60;50.10;;;;;;5003244;28;20445;-75
2024/02/08 00:31:59;;;;;;;22.63;13.33;;;14.50;49.90;;;;;;5014452;28;20472;-75
2024/02/08 00:34:28;;;;;;;26.37;13.90;;;14.50;49.80;;;;;;5015129;28;20457;-74
2024/02/08 00:36:56;;;;;;;27.30;13.50;;;14.50;49.70;;;;;;5006053;28;20483;-74
2024/02/08 00:39:26;;;;;;;25.27;13.53;;;14.50;50.00;;;;;;5003355;28;20500;-75
2024/02/08 00:41:57;;;;;;;23.43;12.73;;;14.50;49.60;;;;;;5005914;28;20523;-74
2024/02/08 00:44:27;;;;;;;20.67;12.93;;;14.40;50.00;;;;;;5009767;28;20498;-73
2024/02/08 00:46:57;;;;;;;22.10;13.17;;;14.40;49.80;;;;;;5007396;28;20523;-74
2024/02/08 00:49:26;;;;;;;22.00;12.83;;;14.40;49.80;;;;;;5008027;28;20451;-75
2024/02/08 00:51:54;;;;;;;19.87;12.77;;;14.40;49.80;;;;;;5014175;28;20494;-74
2024/02/08 00:54:24;;;;;;;25.60;13.43;;;14.40;49.70;;;;;;5014514;28;20506;-75
2024/02/08 00:56:53;;;;;;;24.90;13.33;;;14.40;49.90;;;;;;5013994;28;20464;-74
2024/02/08 00:59:24;;;;;;;21.10;13.07;;;14.30;49.60;;;;;;5013765;28;20448;-74
2024/02/08 01:01:52;;;;;;;26.23;12.80;;;14.30;49.80;;;;;;5013248;28;20472;-74
2024/02/08 01:04:22;;;;;;;28.40;14.63;;;14.30;49.90;;;;;;5005767;28;20487;-75
2024/02/08 01:06:50;;;;;;;25.90;13.53;;;14.30;49.80;;;;;;5009584;28;20491;-73
2024/02/08 01:09:19;;;;;;;25.90;13.63;;;14.30;49.70;;;;;;5013602;28;20467;-74
2024/02/08 01:11:47;;;;;;;26.20;13.83;;;14.30;49.90;;;;;;5012423;28;20494;-75
2024/02/08 01:14:21;;;;;;;21.90;13.20;;;14.30;49.70;;;;;;5012161;28;20448;-75
2024/02/08 01:16:51;;;;;;;23.40;14.07;;;14.20;49.70;;;;;;5012336;28;20467;-75
2024/02/08 01:19:23;;;;;;;27.50;13.27;;;14.20;49.80;;;;;;5008550;28;20547;-75
2024/02/08 01:21:51;;;;;;;22.83;13.60;;;14.20;49.80;;;;;;5006796;28;20432;-75
2024/02/08 01:24:19;;;;;;;21.70;13.00;;;14.20;49.80;;;;;;5011682;28;20480;-75
2024/02/08 01:26:48;;;;;;;21.60;12.60;;;14.20;49.60;;;;;;5013404;28;20473;-75
2024/02/08 01:29:16;;;;;;;23.30;13.73;;;14.20;49.50;;;;;;5013625;28;20448;-75
2024/02/08 01:31:45;;;;;;;27.23;14.23;;;14.20;49.60;;;;;;5013360;28;20455;-75
2024/02/08 01:34:14;;;;;;;28.73;14.37;;;14.10;49.50;;;;;;5012640;28;20482;-75
2024/02/08 01:36:43;;;;;;;24.43;14.10;;;14.10;49.40;;;;;;5004914;28;21002;-75
2024/02/08 01:39:13;;;;;;;28.90;14.10;;;14.20;49.70;;;;;;5013814;28;20509;-75
2024/02/08 01:41:45;;;;;;;25.10;13.77;;;14.10;49.40;;;;;;5013381;28;20448;-75
2024/02/08 01:44:16;;;;;;;23.50;13.57;;;14.20;49.50;;;;;;5013062;28;20503;-75
2024/02/08 01:46:48;;;;;;;25.13;13.97;;;14.20;49.40;;;;;;5009871;28;20492;-75
2024/02/08 01:49:18;;;;;;;23.67;13.10;;;14.10;49.40;;;;;;5005779;28;20468;-75
2024/02/08 01:51:48;;;;;;;23.13;14.13;;;14.10;49.50;;;;;;5013067;28;20515;-75
2024/02/08 01:54:16;;;;;;;22.50;13.20;;;14.10;49.50;;;;;;5011747;28;20452;-75
2024/02/08 01:56:44;;;;;;;25.33;13.53;;;14.10;49.50;;;;;;5005716;28;20472;-75
2024/02/08 01:59:13;;;;;;;21.30;12.90;;;14.10;49.60;;;;;;5012711;28;20543;-76
2024/02/08 02:01:46;;;;;;;21.73;13.43;;;14.10;49.50;;;;;;5012250;28;20448;-75
2024/02/08 02:04:15;;;;;;;23.73;13.00;;;14.10;49.40;;;;;;5012054;28;20511;-75
2024/02/08 02:06:45;;;;;;;23.97;13.63;;;14.10;49.50;;;;;;5002308;28;20563;-75
2024/02/08 02:09:23;;;;;;;21.80;13.13;;;14.10;49.60;;;;;;5009799;28;20445;-75
2024/02/08 02:11:54;;;;;;;20.50;13.00;;;14.10;49.50;;;;;;5012745;28;20459;-75
2024/02/08 02:14:28;;;;;;;23.33;12.43;;;14.10;49.40;;;;;;5012755;28;20544;-75
2024/02/08 02:17:10;;;;;;;23.33;13.30;;;14.10;49.40;;;;;;5012201;28;20478;-75
2024/02/08 02:19:39;;;;;;;21.20;13.10;;;14.10;49.50;;;;;;5000677;28;20450;-75
2024/02/08 02:22:09;;;;;;;30.27;13.77;;;14.00;49.60;;;;;;4992586;28;20541;-75
2024/02/08 02:24:40;;;;;;;22.07;13.07;;;14.10;49.60;;;;;;5008183;28;20529;-75
2024/02/08 02:27:09;;;;;;;24.57;13.20;;;14.00;49.40;;;;;;4992996;28;20469;-75
2024/02/08 02:29:39;;;;;;;24.13;13.43;;;14.00;49.60;;;;;;4992587;28;20515;-75
2024/02/08 02:32:10;;;;;;;21.47;12.90;;;14.00;49.50;;;;;;4992665;28;20481;-75
2024/02/08 02:34:41;;;;;;;20.97;12.60;;;14.00;49.60;;;;;;4993001;28;20449;-75
2024/02/08 02:37:12;;;;;;;31.30;13.50;;;14.00;49.50;;;;;;4992438;28;20568;-75
2024/02/08 02:39:41;;;;;;;21.47;12.97;;;13.90;49.30;;;;;;5003010;28;20457;-75
2024/02/08 02:42:09;;;;;;;22.00;13.10;;;14.00;49.60;;;;;;5008807;28;20482;-75
2024/02/08 02:44:37;;;;;;;24.07;12.20;;;14.00;49.60;;;;;;5011867;28;20476;-76
2024/02/08 02:47:06;;;;;;;20.67;12.60;;;14.00;49.40;;;;;;5012552;28;20538;-75
2024/02/08 02:49:36;;;;;;;24.03;13.07;;;14.00;49.50;;;;;;5011198;28;20995;-75
2024/02/08 02:52:07;;;;;;;22.07;12.77;;;13.90;49.50;;;;;;5012251;28;20480;-75
2024/02/08 02:54:39;;;;;;;21.47;12.50;;;14.00;49.60;;;;;;5011703;28;20452;-75
2024/02/08 02:57:10;;;;;;;22.07;12.63;;;14.00;49.40;;;;;;5010590;28;20480;-75
2024/02/08 02:59:42;;;;;;;22.13;12.43;;;13.90;49.30;;;;;;5012252;28;20440;-75
2024/02/08 03:02:10;;;;;;;18.50;12.60;;;13.90;49.40;;;;;;5012300;28;20448;-75
2024/02/08 03:04:40;;;;;;;22.57;12.87;;;13.90;49.40;;;;;;5010790;28;20492;-75
2024/02/08 03:07:10;;;;;;;19.80;12.70;;;13.90;49.30;;;;;;5011755;28;21001;-75
2024/02/08 03:09:41;;;;;;;22.00;12.50;;;13.90;49.30;;;;;;5011285;28;20452;-75
2024/02/08 03:12:09;;;;;;;23.57;12.70;;;13.90;49.30;;;;;;5001824;28;20448;-75
2024/02/08 03:14:38;;;;;;;21.13;12.43;;;13.90;49.40;;;;;;5007846;28;20539;-75
2024/02/08 03:17:12;;;;;;;23.40;13.17;;;13.90;49.30;;;;;;5011281;28;20474;-75
2024/02/08 03:19:40;;;;;;;22.70;12.90;;;13.90;49.40;;;;;;5002079;28;20545;-75
2024/02/08 03:22:08;;;;;;;22.93;13.10;;;13.90;49.40;;;;;;4987322;28;20565;-76
2024/02/08 03:24:36;;;;;;;24.27;13.60;;;13.90;49.40;;;;;;4999534;28;20481;-76
2024/02/08 03:27:13;;;;;;;24.70;13.27;;;13.90;49.90;;;;;;5018207;28;20460;-75
2024/02/08 03:29:42;;;;;;;25.63;13.10;;;13.90;49.30;;;;;;5027900;28;20452;-75
2024/02/08 03:32:10;;;;;;;27.00;13.73;;;13.90;49.40;;;;;;5039759;28;20452;-75
2024/02/08 03:34:39;;;;;;;20.73;12.50;;;13.90;49.40;;;;;;5018162;28;20441;-75
2024/02/08 03:37:08;;;;;;;32.47;19.53;;;13.90;49.40;;;;;;5013803;28;20534;-75
2024/02/08 03:39:37;;;;;;;34.70;18.47;;;13.90;49.20;;;;;;5004773;28;20529;-77
2024/02/08 03:42:09;;;;;;;35.13;19.47;;;13.80;49.40;;;;;;5010543;28;20444;-75
2024/02/08 03:44:38;;;;;;;44.60;22.80;;;13.80;49.30;;;;;;5018013;28;20476;-75
2024/02/08 03:47:07;;;;;;;46.47;24.97;;;13.80;49.20;;;;;;5010694;28;20826;-75
2024/02/08 03:49:37;;;;;;;46.87;25.77;;;13.80;49.30;;;;;;5016635;28;20453;-75
2024/02/08 03:52:08;;;;;;;56.60;27.40;;;13.80;49.30;;;;;;4997178;28;20480;-74
2024/02/08 03:54:38;;;;;;;57.70;28.57;;;13.80;49.30;;;;;;5011209;28;20445;-73
2024/02/08 03:57:08;;;;;;;60.60;32.13;;;13.80;49.40;;;;;;5011345;28;20998;-74
2024/02/08 03:59:40;;;;;;;63.00;31.23;;;13.80;49.30;;;;;;5010457;28;20519;-75
2024/02/08 04:02:10;;;;;;;61.53;33.70;;;13.80;49.40;;;;;;5007510;28;20560;-76
2024/02/08 04:04:50;;;;;;;65.90;33.70;;;13.80;49.20;;;;;;4998245;28;20473;-75
2024/02/08 04:07:21;;;;;;;62.60;33.20;;;13.70;49.40;;;;;;5001588;28;20802;-75
2024/02/08 04:09:55;;;;;;;66.13;34.27;;;13.80;49.40;;;;;;4992970;28;20450;-75
2024/02/08 04:54:09;;;;;;;67.50;35.27;;;13.70;49.60;;;;;;5010555;28;20536;-76
2024/02/08 04:56:38;;;;;;;62.00;33.47;;;13.70;49.50;;;;;;5004313;28;20468;-75
2024/02/08 04:59:06;;;;;;;56.63;31.87;;;13.70;49.50;;;;;;5006659;28;20452;-75
2024/02/08 05:01:53;;;;;;;65.30;33.20;;;13.70;49.30;;;;;;4994428;28;20449;-75
2024/02/08 05:04:21;;;;;;;58.70;32.40;;;13.70;49.50;;;;;;4994375;28;20469;-75
2024/02/08 05:06:50;;;;;;;57.33;31.80;;;13.60;49.30;;;;;;5002990;28;20507;-75
2024/02/08 05:09:19;;;;;;;57.57;31.03;;;13.60;49.40;;;;;;5006455;28;20944;-75
2024/02/08 05:11:49;;;;;;;62.07;32.73;;;13.70;49.40;;;;;;5010890;28;20515;-75
2024/02/08 05:14:22;;;;;;;60.90;31.93;;;13.60;49.30;;;;;;5004243;28;20457;-75
2024/02/08 05:16:54;;;;;;;56.23;30.93;;;13.60;49.40;;;;;;5014970;28;20502;-75
2024/02/08 05:19:25;;;;;;;56.60;29.37;;;13.60;49.30;;;;;;4999041;28;20445;-75
2024/02/08 05:21:58;;;;;;;54.80;29.43;;;13.60;49.40;;;;;;4995603;28;20467;-75
2024/02/08 05:24:27;;;;;;;52.00;29.30;;;13.60;49.40;;;;;;5006960;28;20524;-75
2024/02/08 05:26:56;;;;;;;54.10;30.00;;;13.60;49.40;;;;;;5003795;28;20463;-76
2024/02/08 05:29:25;;;;;;;54.33;29.87;;;13.60;49.30;;;;;;5013946;28;20475;-75
2024/02/08 05:31:55;;;;;;;55.17;28.63;;;13.60;49.30;;;;;;5006453;28;20519;-75
2024/02/08 05:34:25;;;;;;;54.47;28.77;;;13.60;49.60;;;;;;5011758;28;20439;-75
2024/02/08 05:36:55;;;;;;;55.83;28.57;;;13.60;49.50;;;;;;5026483;22;20479;-79
2024/02/08 05:39:24;;;;;;;50.80;27.70;;;13.50;49.40;;;;;;5031374;28;20432;-78
2024/02/08 05:41:55;;;;;;;53.17;28.17;;;13.50;49.50;;;;;;5031874;28;20439;-78
2024/02/08 05:44:29;;;;;;;52.03;28.70;;;13.60;49.50;;;;;;5021318;28;20545;-78
2024/02/08 05:47:07;;;;;;;48.27;26.17;;;13.60;49.50;;;;;;5017283;28;20479;-79
2024/02/08 05:49:45;;;;;;;47.50;26.17;;;13.60;49.50;;;;;;5019781;28;20456;-80
2024/02/08 05:52:14;;;;;;;49.50;26.80;;;13.60;49.50;;;;;;5012369;28;20440;-79
2024/02/08 05:54:45;;;;;;;56.13;28.30;;;13.60;49.40;;;;;;5012271;28;20527;-79
2024/02/08 05:57:14;;;;;;;47.50;25.03;;;13.50;49.30;;;;;;5012475;28;20456;-78
2024/02/08 05:59:44;;;;;;;42.97;24.03;;;13.50;49.30;;;;;;5013085;28;20432;-79
2024/02/08 06:02:22;;;;;;;46.13;24.97;;;13.50;49.40;;;;;;5011866;28;20484;-80
2024/02/08 06:04:59;;;;;;;49.13;25.80;;;13.50;49.30;;;;;;5011805;28;20482;-77
2024/02/08 06:07:30;;;;;;;40.23;23.10;;;13.50;49.40;;;;;;5011351;28;20455;-76
2024/02/08 06:10:13;;;;;;;45.17;24.23;;;13.50;49.50;;;;;;5024407;28;20437;-78
2024/02/08 06:12:51;;;;;;;46.57;23.90;;;13.50;49.50;;;;;;5013798;28;20443;-78
2024/02/08 06:15:24;;;;;;;44.83;23.93;;;13.50;49.40;;;;;;5022343;28;20427;-78
2024/02/08 06:18:03;;;;;;;43.23;22.47;;;13.50;49.50;;;;;;5025605;28;20456;-78
2024/02/08 06:20:40;;;;;;;46.73;23.43;;;13.50;49.10;;;;;;5011657;28;20443;-79
2024/02/08 06:23:22;;;;;;;48.07;24.80;;;13.50;49.40;;;;;;5013943;28;20482;-79
2024/02/08 06:28:37;;;;;;;41.10;22.87;;;13.50;49.20;;;;;;5003511;28;20451;-78
2024/02/08 06:31:06;;;;;;;40.70;21.57;;;13.40;49.40;;;;;;5009831;28;20444;-78
2024/02/08 06:33:42;;;;;;;42.47;22.23;;;13.50;49.40;;;;;;5003438;28;20495;-76
2024/02/08 06:36:12;;;;;;;46.00;22.40;;;13.50;49.40;;;;;;5010869;28;20440;-80
2024/02/08 06:38:51;;;;;;;37.97;21.77;;;13.50;49.50;;;;;;5009825;28;20473;-78
2024/02/08 06:41:24;;;;;;;41.63;22.50;;;13.50;49.40;;;;;;5011718;28;20849;-79
2024/02/08 06:44:33;;;;;;;39.37;21.50;;;13.50;49.40;;;;;;5012679;28;20520;-78
2024/02/08 06:46:48;;;;;;;37.60;20.30;;;13.50;49.40;;;;;;5006312;28;20464;-78
2024/02/08 07:39:34;;;;;;;31.60;16.90;;;13.50;49.80;;;;;;5011816;28;20452;-79
2024/02/08 07:42:12;;;;;;;32.17;17.37;;;13.50;49.60;;;;;;5007348;28;20453;-78
2024/02/08 07:44:45;;;;;;;29.43;16.20;;;13.60;49.50;;;;;;5010985;28;20448;-77
2024/02/08 07:47:13;;;;;;;29.00;16.00;;;13.60;49.70;;;;;;5011620;28;20533;-77
2024/02/08 07:49:44;;;;;;;29.77;16.53;;;13.60;49.50;;;;;;5010785;28;20876;-78
2024/02/08 07:52:19;;;;;;;27.90;16.50;;;13.60;49.50;;;;;;5012328;28;20445;-79
2024/02/08 07:54:56;;;;;;;27.50;15.50;;;13.60;49.60;;;;;;5007727;28;20447;-78
2024/02/08 07:57:26;;;;;;;29.13;16.40;;;13.60;49.50;;;;;;5016513;28;20467;-78
2024/02/08 07:59:59;;;;;;;29.50;15.70;;;13.70;49.60;;;;;;5020057;28;20440;-79
2024/02/08 08:02:29;;;;;;;27.90;15.50;;;13.70;49.50;;;;;;5026459;28;20499;-81
2024/02/08 08:04:57;;;;;;;28.13;15.03;;;13.70;49.60;;;;;;5023086;28;20450;-81
2024/02/08 08:07:26;;;;;;;26.80;14.80;;;13.70;49.20;;;;;;5022795;28;20521;-78
2024/02/08 08:10:07;;;;;;;28.90;15.47;;;13.70;49.70;;;;;;5013565;28;20452;-81
2024/02/08 08:12:36;;;;;;;25.63;14.40;;;13.70;49.60;;;;;;5019756;28;20448;-78
2024/02/08 08:15:15;;;;;;;28.20;14.97;;;13.70;49.50;;;;;;5019168;28;20539;-79
2024/02/08 08:17:44;;;;;;;25.53;14.17;;;13.80;49.50;;;;;;5017465;28;20495;-79
2024/02/08 08:23:07;;;;;;;24.93;13.60;;;13.80;49.90;;;;;;5015276;28;20456;-79
2024/02/08 08:28:39;;;;;;;22.60;13.67;;;13.80;49.60;;;;;;5002685;28;20448;-79
2024/02/08 08:31:35;;;;;;;21.27;12.10;;;13.80;49.40;;;;;;5017591;28;20448;-79
2024/02/08 08:36:57;;;;;;;23.23;12.67;;;13.90;49.50;;;;;;5013629;28;20996;-79
2024/02/08 08:39:46;;;;;;;23.50;12.57;;;13.80;49.40;;;;;;5004718;28;20453;-78
2024/02/08 08:42:16;;;;;;;20.73;11.50;;;13.90;49.40;;;;;;5012527;28;20451;-76
2024/02/08 08:44:51;;;;;;;19.17;10.67;;;13.90;49.30;;;;;;5014418;28;20502;-78
2024/02/08 08:47:24;;;;;;;18.37;10.90;;;13.90;49.40;;;;;;5013890;28;20479;-78
2024/02/08 08:49:52;;;;;;;17.30;10.50;;;14.00;49.50;;;;;;5014252;28;20486;-77
2024/02/08 08:52:24;;;;;;;17.03;10.23;;;14.00;49.40;;;;;;5010229;28;20472;-78
2024/02/08 08:55:10;;;;;;;22.63;11.00;;;14.00;49.40;;;;;;5010905;28;21029;-78
2024/02/08 08:57:39;;;;;;;18.90;10.13;;;14.00;49.50;;;;;;5011847;28;20462;-78
2024/02/08 09:00:11;;;;;;;17.07;9.83;;;14.10;49.70;;;;;;5010131;28;20440;-78
2024/02/08 09:02:40;;;;;;;21.57;10.80;;;14.20;49.80;;;;;;5011721;28;20528;-76
2024/02/08 09:05:17;;;;;;;25.93;10.27;;;14.20;49.80;;;;;;5009868;28;20456;-77
2024/02/08 09:07:46;;;;;;;20.20;10.00;;;14.30;49.80;;;;;;5012915;28;20537;-77
2024/02/08 09:10:15;;;;;;;18.43;9.67;;;14.30;49.80;;;;;;5012211;28;20955;-77
2024/02/08 09:12:58;;;;;;;17.90;9.43;;;14.40;49.90;;;;;;5012880;28;20433;-78
2024/02/08 09:15:27;;;;;;;18.43;9.57;;;14.50;50.10;;;;;;5009666;28;20473;-78
2024/02/08 09:18:07;;;;;;;18.43;9.80;;;14.50;50.20;;;;;;5012288;28;20464;-77
2024/02/08 09:20:38;;;;;;;20.10;9.50;;;14.50;50.10;;;;;;5010965;28;20448;-77
2024/02/08 09:23:13;;;;;;;17.23;9.23;;;14.60;50.20;;;;;;5008704;28;20492;-78
2024/02/08 09:25:44;;;;;;;16.43;8.43;;;14.70;50.30;;;;;;5012291;28;20437;-77
2024/02/08 09:28:35;;;;;;;16.60;9.37;;;14.70;50.30;;;;;;5020905;28;20452;-78
2024/02/08 09:31:12;;;;;;;13.90;8.13;;;14.70;50.40;;;;;;5012177;28;20467;-77
2024/02/08 09:33:50;;;;;;;20.07;10.00;;;14.70;50.50;;;;;;5017870;28;20517;-78
2024/02/08 09:36:18;;;;;;;15.67;9.10;;;14.70;50.50;;;;;;5009249;28;20448;-76
2024/02/08 09:38:50;;;;;;;16.50;8.70;;;14.70;50.60;;;;;;5012233;28;20437;-77
2024/02/08 09:41:23;;;;;;;15.27;8.70;;;14.80;50.80;;;;;;5010159;28;20437;-76
2024/02/08 09:43:56;;;;;;;15.90;8.60;;;14.80;50.80;;;;;;5012200;28;20432;-78
2024/02/08 09:49:13;;;;;;;17.83;8.60;;;14.90;50.90;;;;;;5017327;28;20517;-78
2024/02/08 09:51:52;;;;;;;16.67;9.20;;;14.90;50.90;;;;;;5016920;28;20536;-77
2024/02/08 09:54:27;;;;;;;11.67;7.97;;;14.90;51.00;;;;;;5011938;28;20978;-78
2024/02/08 09:56:57;;;;;;;14.23;8.03;;;15.00;51.00;;;;;;5011323;28;20500;-78
2024/02/08 10:02:32;;;;;;;14.23;8.10;;;15.00;51.10;;;;;;5127491;27;20557;-79
2024/02/08 10:05:19;;;;;;;14.27;7.83;;;15.10;51.10;;;;;;5130289;27;20431;-78
2024/02/08 10:08:05;;;;;;;17.80;7.83;;;15.10;51.10;;;;;;5115339;28;20447;-78
2024/02/08 10:10:43;;;;;;;13.30;6.70;;;15.10;51.40;;;;;;5110182;28;20525;-77
2024/02/08 10:13:26;;;;;;;12.43;6.50;;;15.20;51.90;;;;;;5109862;28;20432;-77
2024/02/08 10:15:58;;;;;;;10.80;6.30;;;15.40;52.10;;;;;;5104264;28;20436;-78
2024/02/08 10:18:37;;;;;;;16.87;7.20;;;15.40;51.90;;;;;;5105505;28;20449;-79
2024/02/08 10:21:12;;;;;;;10.57;6.37;;;15.50;51.90;;;;;;5108720;28;20464;-79
2024/02/08 10:23:59;;;;;;;11.87;6.97;;;15.50;51.90;;;;;;5108030;28;20443;-78
2024/02/08 10:26:28;;;;;;;18.50;6.87;;;15.60;51.80;;;;;;5106613;28;20451;-77
2024/02/08 10:28:57;;;;;;;11.97;6.53;;;15.70;51.80;;;;;;5108255;28;20464;-79
2024/02/08 10:31:25;;;;;;;11.60;6.80;;;15.80;51.60;;;;;;5111901;28;20436;-79
2024/02/08 10:34:08;;;;;;;11.53;6.50;;;15.90;51.70;;;;;;5088962;28;20444;-77
2024/02/08 10:36:39;;;;;;;12.00;6.53;;;15.90;51.40;;;;;;5106884;28;20550;-79
2024/02/08 10:39:23;;;;;;;11.53;6.60;;;15.90;51.40;;;;;;5112398;28;20507;-79
2024/02/08 10:41:58;;;;;;;10.43;6.20;;;16.00;51.40;;;;;;5107721;28;20468;-79
2024/02/08 10:44:29;;;;;;;10.80;6.73;;;16.00;51.20;;;;;;5108245;28;20449;-78
2024/02/08 10:47:06;;;;;;;10.20;5.93;;;16.10;51.30;;;;;;5107454;28;20514;-79
2024/02/08 10:49:42;;;;;;;23.80;7.17;;;16.10;51.30;;;;;;5096455;28;20540;-79
2024/02/08 10:52:12;;;;;;;10.27;6.47;;;16.20;51.40;;;;;;5107193;28;20454;-79
2024/02/08 10:54:43;;;;;;;14.60;5.70;;;16.20;51.30;;;;;;5106980;28;20965;-78
2024/02/08 10:59:55;;;;;;;10.50;6.50;;;16.30;51.30;;;;;;5094322;28;20444;-77
2024/02/08 11:02:31;;;;;;;10.30;6.33;;;16.30;51.20;;;;;;5107206;28;20567;-79
2024/02/08 11:05:20;;;;;;;12.07;6.20;;;16.40;51.30;;;;;;5113935;28;20443;-79
2024/02/08 11:07:53;;;;;;;9.70;5.67;;;16.50;51.30;;;;;;5106456;28;20477;-78
2024/02/08 11:10:23;;;;;;;8.03;5.80;;;16.50;51.20;;;;;;5111398;28;20444;-78
2024/02/08 11:12:55;;;;;;;9.70;6.03;;;16.60;51.40;;;;;;5098781;28;20444;-78
2024/02/08 11:15:30;;;;;;;10.80;6.63;;;16.70;51.20;;;;;;5093697;28;20449;-78
2024/02/08 11:18:02;;;;;;;8.80;6.10;;;16.80;51.30;;;;;;5093434;28;20548;-79
2024/02/08 11:20:42;;;;;;;11.87;6.13;;;16.90;51.30;;;;;;5093694;28;20446;-79
2024/02/08 11:23:11;;;;;;;10.10;6.10;;;17.00;51.10;;;;;;5094078;28;20444;-78
2024/02/08 11:25:44;;;;;;;13.07;6.17;;;17.10;51.00;;;;;;5093596;28;20502;-78
2024/02/08 11:28:15;;;;;;;11.83;6.23;;;17.10;51.00;;;;;;5093729;28;20460;-78
2024/02/08 11:30:54;;;;;;;11.90;6.00;;;17.20;51.00;;;;;;5093880;28;20441;-78
2024/02/08 11:33:31;;;;;;;12.03;6.00;;;17.20;50.90;;;;;;5093283;28;20969;-79
2024/02/08 11:36:13;;;;;;;9.60;6.33;;;17.20;50.90;;;;;;5091611;28;20441;-78
2024/02/08 11:38:46;;;;;;;10.03;6.27;;;17.10;50.70;;;;;;5091611;28;20448;-78
2024/02/08 11:41:18;;;;;;;10.30;6.33;;;17.10;50.80;;;;;;5096936;28;20556;-78
2024/02/08 11:43:48;;;;;;;11.30;6.13;;;17.10;50.90;;;;;;5092817;28;20437;-79
2024/02/08 11:46:18;;;;;;;8.60;5.80;;;17.10;50.90;;;;;;5093055;28;20449;-78
2024/02/08 11:48:47;;;;;;;10.10;5.80;;;17.10;50.90;;;;;;5093177;28;20440;-78
2024/02/08 11:51:22;;;;;;;9.73;5.77;;;17.00;50.90;;;;;;5093617;28;20441;-77
2024/02/08 11:53:51;;;;;;;12.50;6.47;;;16.90;51.00;;;;;;5093428;28;20498;-78
2024/02/08 11:56:20;;;;;;;12.10;5.87;;;16.90;51.10;;;;;;5092960;28;20556;-77
2024/02/08 11:58:49;;;;;;;10.00;6.23;;;16.90;51.20;;;;;;5093526;28;20445;-80
2024/02/08 12:01:17;;;;;;;8.07;5.57;;;16.90;51.20;;;;;;5092184;28;20470;-79
2024/02/08 12:03:46;;;;;;;10.70;5.30;;;16.80;51.10;;;;;;5090635;28;20445;-78
2024/02/08 12:06:23;;;;;;;10.63;5.60;;;16.80;51.30;;;;;;5080678;28;20504;-78
2024/02/08 12:08:57;;;;;;;11.27;5.50;;;16.80;51.20;;;;;;5088240;28;20448;-78
2024/02/08 12:11:29;;;;;;;10.30;5.77;;;16.80;51.40;;;;;;5098165;28;20447;-78
2024/02/08 12:13:58;;;;;;;9.10;5.30;;;16.80;51.40;;;;;;5093006;28;20464;-79
2024/02/08 12:16:46;;;;;;;10.63;5.57;;;16.80;51.40;;;;;;5090452;28;20461;-77
2024/02/08 12:19:16;;;;;;;11.20;4.90;;;16.80;51.40;;;;;;5093273;28;20812;-78
2024/02/08 12:21:54;;;;;;;10.47;5.47;;;16.80;51.40;;;;;;5092720;28;20475;-79
2024/02/08 12:24:23;;;;;;;10.50;5.80;;;16.80;51.40;;;;;;5091539;28;20514;-78
2024/02/08 12:26:54;;;;;;;11.63;6.23;;;16.80;51.40;;;;;;5091819;28;20460;-78
2024/02/08 12:29:24;;;;;;;11.40;6.17;;;16.80;51.50;;;;;;5091939;28;20448;-78
2024/02/08 12:31:55;;;;;;;9.60;6.73;;;16.80;51.60;;;;;;5091015;28;20498;-77
2024/02/08 12:34:31;;;;;;;13.23;7.13;;;16.80;51.60;;;;;;5092452;28;20448;-78
2024/02/08 12:37:05;;;;;;;17.60;8.00;;;16.80;51.60;;;;;;5091431;28;20506;-77
2024/02/08 12:39:34;;;;;;;8.20;3.90;;;16.80;51.70;;;;;;5092897;28;20476;-78
2024/02/08 12:42:04;;;;;;;7.07;4.57;;;17.00;53.80;;;;;;5090748;28;20464;-77
2024/02/08 12:44:34;;;;;;;12.77;5.37;;;17.20;53.30;;;;;;5092588;28;20449;-78
2024/02/08 12:47:06;;;;;;;8.33;4.93;;;17.20;52.40;;;;;;5092054;28;20460;-78
2024/02/08 12:49:34;;;;;;;10.20;5.47;;;17.20;52.40;;;;;;5098317;28;20532;-77
2024/02/08 12:52:09;;;;;;;12.80;6.00;;;17.10;52.40;;;;;;5092547;28;20440;-77
2024/02/08 12:54:38;;;;;;;10.87;5.97;;;17.10;52.60;;;;;;5090776;28;20448;-78
2024/02/08 12:57:10;;;;;;;13.00;6.70;;;17.10;52.70;;;;;;5091679;28;20473;-78
2024/02/08 12:59:38;;;;;;;11.93;6.80;;;17.00;52.70;;;;;;5089211;28;20460;-78
2024/02/08 13:02:09;;;;;;;15.13;7.40;;;16.90;52.60;;;;;;5091712;28;20472;-78
2024/02/08 13:04:43;;;;;;;12.20;6.90;;;16.90;52.70;;;;;;5091999;28;20445;-78
2024/02/08 13:07:16;;;;;;;8.60;6.20;;;16.90;52.70;;;;;;5091728;28;20476;-78
2024/02/08 13:09:46;;;;;;;14.33;7.20;;;16.80;52.60;;;;;;5092057;28;20505;-78
2024/02/08 13:12:20;;;;;;;14.07;7.40;;;16.80;52.80;;;;;;5097374;28;20444;-78
2024/02/08 13:15:02;;;;;;;11.43;7.17;;;16.70;52.80;;;;;;5084542;28;20482;-77
2024/02/08 13:17:33;;;;;;;12.90;7.57;;;16.70;52.80;;;;;;5087605;28;20459;-77
2024/02/08 13:20:11;;;;;;;11.00;7.40;;;16.70;52.80;;;;;;5091486;28;20520;-77
2024/02/08 13:22:44;;;;;;;13.20;7.67;;;16.70;52.80;;;;;;5091881;28;20566;-77
2024/02/08 13:25:14;;;;;;;12.67;7.13;;;16.70;52.90;;;;;;5090777;28;20437;-78
2024/02/08 13:27:44;;;;;;;14.00;8.03;;;16.70;52.90;;;;;;5091126;28;20547;-77
2024/02/08 13:30:15;;;;;;;9.33;6.70;;;16.60;53.00;;;;;;5091789;28;20429;-77
2024/02/08 13:32:44;;;;;;;12.00;7.60;;;16.60;52.90;;;;;;5091508;28;20490;-78
2024/02/08 13:35:18;;;;;;;11.37;7.67;;;16.60;53.00;;;;;;5093198;28;20445;-79
2024/02/08 13:37:52;;;;;;;15.33;7.60;;;16.60;53.00;;;;;;5087990;28;21028;-78
2024/02/08 13:40:22;;;;;;;13.67;7.90;;;16.60;53.00;;;;;;5092929;28;20443;-78
2024/02/08 13:42:51;;;;;;;19.20;8.50;;;16.50;53.00;;;;;;5091529;28;20536;-77
2024/02/08 13:45:24;;;;;;;12.20;8.13;;;16.50;53.00;;;;;;5091847;28;20471;-79
2024/02/08 13:47:55;;;;;;;13.33;7.40;;;16.50;53.10;;;;;;5095155;28;20504;-77
2024/02/08 13:50:28;;;;;;;17.60;8.97;;;16.50;53.10;;;;;;5095160;28;20441;-78
2024/02/08 13:53:01;;;;;;;14.30;8.20;;;16.40;53.00;;;;;;5105524;28;20455;-77
2024/02/08 13:55:32;;;;;;;14.53;7.63;;;16.40;53.10;;;;;;5105673;28;20437;-76
2024/02/08 13:58:20;;;;;;;15.80;7.40;;;16.50;53.20;;;;;;5097434;28;20443;-77
2024/02/08 14:00:48;;;;;;;11.77;7.20;;;16.40;53.20;;;;;;5094724;28;20437;-74
2024/02/08 14:03:17;;;;;;;10.83;5.77;;;16.40;53.60;;;;;;5095661;28;20515;-77
2024/02/08 14:05:50;;;;;;;11.20;4.67;;;16.60;54.90;;;;;;5096985;28;20439;-76
2024/02/08 14:08:23;;;;;;;8.60;5.13;;;16.70;54.20;;;;;;5095196;28;20485;-77
2024/02/08 14:10:53;;;;;;;10.00;5.27;;;16.70;54.50;;;;;;5094971;28;20453;-76
2024/02/08 14:13:29;;;;;;;9.30;4.70;;;16.80;54.30;;;;;;5094693;28;20505;-77
2024/02/08 14:16:06;;;;;;;9.60;5.37;;;16.70;54.00;;;;;;5094382;28;20531;-77
2024/02/08 14:18:35;;;;;;;8.27;4.97;;;16.80;54.10;;;;;;5092244;28;20535;-77
2024/02/08 14:21:10;;;;;;;7.47;5.30;;;16.70;54.00;;;;;;5090160;28;20480;-77
2024/02/08 14:23:43;;;;;;;8.33;5.17;;;16.60;54.00;;;;;;5090413;28;20517;-77
2024/02/08 14:26:31;;;;;;;10.33;5.70;;;16.70;54.20;;;;;;5093299;28;20440;-77
2024/02/08 14:28:59;;;;;;;8.30;5.50;;;16.60;54.00;;;;;;5090785;28;20441;-77
2024/02/08 14:31:27;;;;;;;9.87;5.50;;;16.60;54.00;;;;;;5086147;28;20461;-77
2024/02/08 14:33:56;;;;;;;7.83;5.57;;;16.60;53.90;;;;;;5091050;28;20509;-77
2024/02/08 14:36:24;;;;;;;8.20;5.37;;;16.60;54.10;;;;;;5090781;28;20460;-77
2024/02/08 14:38:53;;;;;;;11.70;5.90;;;16.50;53.90;;;;;;5090846;28;20470;-77
2024/02/08 14:41:32;;;;;;;11.77;5.40;;;16.50;54.50;;;;;;5090234;28;20445;-77
2024/02/08 14:44:08;;;;;;;9.87;5.20;;;16.50;54.00;;;;;;5090280;28;20508;-78
2024/02/08 14:46:39;;;;;;;9.83;5.70;;;16.50;54.00;;;;;;5097521;28;20598;-77
2024/02/08 14:49:22;;;;;;;7.80;5.30;;;16.50;54.00;;;;;;5090483;28;20445;-77
2024/02/08 14:52:01;;;;;;;14.00;5.83;;;16.40;54.00;;;;;;5092820;28;20428;-77